Time;durP1;ratioP1;P1;durP2;ratioP2;P2;SDS_P1;SDS_P2;PMS_P1;PMS_P2;Temp;Humidity;BMP_temperature;BMP_pressure;BME280_temperature;BME280_humidity;BME280_pressure;Samples;Min_cycle;Max_cycle;Signal;HPM_P1;HPM_P2
2022/04/04 00:00:41;;;;;;;1.30;1.20;;;17.80;56.30;;;;;;4986326;28;20085;-13
2022/04/04 00:03:07;;;;;;;1.23;1.13;;;17.70;56.50;;;;;;4990865;28;20042;-14
2022/04/04 00:05:34;;;;;;;1.40;1.30;;;17.70;56.40;;;;;;4988421;28;20050;-13
2022/04/04 00:07:59;;;;;;;1.48;1.20;;;17.80;56.30;;;;;;4989879;28;20161;-13
2022/04/04 00:10:25;;;;;;;1.17;1.00;;;17.80;56.40;;;;;;4989604;28;20157;-13
2022/04/04 00:12:50;;;;;;;1.10;1.10;;;17.70;56.20;;;;;;4990382;28;20042;-13
2022/04/04 00:15:16;;;;;;;1.42;1.13;;;17.70;56.30;;;;;;4989736;28;20073;-16
2022/04/04 00:17:42;;;;;;;0.98;0.98;;;17.80;56.30;;;;;;4991260;28;20046;-14
2022/04/04 00:20:09;;;;;;;1.27;1.17;;;17.70;56.20;;;;;;4989849;28;20129;-14
2022/04/04 00:22:35;;;;;;;1.60;1.50;;;17.70;56.30;;;;;;4988318;28;20065;-14
2022/04/04 00:25:01;;;;;;;1.25;1.15;;;17.60;56.30;;;;;;4987667;28;20050;-14
2022/04/04 00:27:26;;;;;;;1.45;1.35;;;17.60;56.40;;;;;;4990339;28;20081;-15
2022/04/04 00:29:52;;;;;;;1.13;1.10;;;17.60;56.40;;;;;;4989840;28;20677;-14
2022/04/04 00:32:18;;;;;;;1.13;1.08;;;17.70;56.40;;;;;;4989710;28;20042;-14
2022/04/04 00:34:43;;;;;;;1.20;1.10;;;17.70;56.20;;;;;;4989904;28;20050;-14
2022/04/04 00:37:09;;;;;;;0.90;0.85;;;17.70;56.30;;;;;;4990049;28;20050;-14
2022/04/04 00:39:34;;;;;;;1.00;1.00;;;17.70;56.20;;;;;;4988658;28;20050;-14
2022/04/04 00:42:00;;;;;;;0.95;0.95;;;17.70;56.20;;;;;;4989975;28;20168;-13
2022/04/04 00:44:26;;;;;;;1.25;1.10;;;17.70;56.20;;;;;;4989038;28;20041;-14
2022/04/04 00:46:51;;;;;;;1.20;1.10;;;17.60;56.20;;;;;;4986503;28;20493;-15
2022/04/04 00:49:17;;;;;;;1.17;1.08;;;17.70;56.20;;;;;;4991566;28;20046;-14
2022/04/04 00:51:42;;;;;;;0.88;0.88;;;17.70;56.40;;;;;;4989301;28;20049;-15
2022/04/04 00:54:08;;;;;;;1.20;1.10;;;17.60;56.40;;;;;;4998354;28;20066;-14
2022/04/04 00:56:34;;;;;;;1.20;1.20;;;17.70;56.20;;;;;;4997713;28;20038;-14
2022/04/04 00:59:00;;;;;;;1.10;1.00;;;17.60;56.30;;;;;;4997602;28;20048;-14
2022/04/04 01:01:26;;;;;;;1.23;1.13;;;17.50;56.30;;;;;;4997275;28;20121;-15
2022/04/04 01:03:52;;;;;;;1.00;0.90;;;17.50;56.20;;;;;;4978790;28;20463;-14
2022/04/04 01:06:17;;;;;;;1.30;1.20;;;17.60;56.20;;;;;;4979044;28;20077;-14
2022/04/04 01:08:44;;;;;;;1.17;1.15;;;17.60;56.20;;;;;;4977917;28;20042;-14
2022/04/04 01:11:10;;;;;;;1.40;1.30;;;17.60;56.10;;;;;;4988656;28;20540;-15
2022/04/04 01:13:36;;;;;;;1.00;1.00;;;17.50;56.10;;;;;;4960448;28;20517;-14
2022/04/04 01:16:01;;;;;;;1.33;1.10;;;17.50;56.20;;;;;;4978860;28;20038;-14
2022/04/04 01:18:27;;;;;;;1.20;0.98;;;17.50;56.20;;;;;;4977581;28;20171;-13
2022/04/04 01:20:53;;;;;;;1.40;1.30;;;17.50;56.20;;;;;;4978377;28;20046;-14
2022/04/04 01:23:22;;;;;;;0.93;0.93;;;17.40;56.10;;;;;;4978094;28;20066;-14
2022/04/04 01:25:47;;;;;;;1.13;1.13;;;17.30;56.40;;;;;;4992654;28;20137;-13
2022/04/04 01:28:13;;;;;;;1.23;1.13;;;17.30;56.40;;;;;;4997680;28;20069;-14
2022/04/04 01:30:39;;;;;;;1.17;1.10;;;17.30;56.50;;;;;;4997066;28;20042;-13
2022/04/04 01:33:04;;;;;;;0.80;0.80;;;17.20;56.40;;;;;;4995746;28;20136;-14
2022/04/04 01:35:30;;;;;;;0.90;0.90;;;17.20;56.50;;;;;;4996341;28;20038;-14
2022/04/04 01:37:56;;;;;;;1.00;1.00;;;17.20;56.60;;;;;;4997264;28;20080;-14
2022/04/04 01:40:21;;;;;;;1.00;1.00;;;17.20;56.60;;;;;;4984974;28;20129;-16
2022/04/04 01:42:52;;;;;;;1.10;1.00;;;17.20;56.50;;;;;;4997131;28;20046;-14
2022/04/04 01:45:18;;;;;;;0.93;0.93;;;17.10;56.60;;;;;;4997190;28;20407;-14
2022/04/04 01:47:43;;;;;;;1.20;1.10;;;17.10;57.10;;;;;;4996341;28;20054;-14
2022/04/04 01:50:09;;;;;;;1.02;1.00;;;17.20;56.60;;;;;;4996196;28;20046;-15
2022/04/04 01:52:34;;;;;;;1.23;1.00;;;17.10;56.40;;;;;;4996263;28;20053;-14
2022/04/04 01:55:00;;;;;;;1.20;1.10;;;17.10;56.50;;;;;;4997189;28;20066;-14
2022/04/04 01:57:26;;;;;;;1.08;1.00;;;17.10;56.70;;;;;;4996435;28;20042;-13
2022/04/04 01:59:51;;;;;;;1.15;1.02;;;17.10;56.60;;;;;;4997014;28;20069;-13
2022/04/04 02:02:17;;;;;;;1.13;1.02;;;17.10;56.70;;;;;;4996970;28;20050;-13
2022/04/04 02:04:42;;;;;;;0.90;0.90;;;17.00;56.70;;;;;;4996190;28;20058;-12
2022/04/04 02:07:08;;;;;;;0.90;0.90;;;17.00;56.60;;;;;;4996264;28;20070;-13
2022/04/04 02:09:34;;;;;;;0.90;0.88;;;17.00;56.70;;;;;;4996276;28;20042;-14
2022/04/04 02:12:00;;;;;;;1.02;0.98;;;17.00;56.80;;;;;;4996819;28;20053;-14
2022/04/04 02:14:25;;;;;;;0.90;0.90;;;17.00;56.60;;;;;;4995460;28;20057;-13
2022/04/04 02:16:51;;;;;;;0.73;0.73;;;17.00;56.80;;;;;;4977013;28;20046;-13
2022/04/04 02:19:17;;;;;;;0.77;0.77;;;17.00;56.60;;;;;;4986425;28;20129;-13
2022/04/04 02:21:44;;;;;;;0.60;0.60;;;17.00;56.80;;;;;;4995746;28;20047;-13
2022/04/04 02:24:10;;;;;;;0.98;0.98;;;17.00;56.90;;;;;;4995995;28;20046;-14
2022/04/04 02:26:35;;;;;;;0.90;0.90;;;17.00;56.80;;;;;;4996035;28;20104;-13
2022/04/04 02:29:01;;;;;;;1.23;1.13;;;17.00;56.70;;;;;;4996602;28;20054;-13
2022/04/04 02:31:26;;;;;;;0.93;0.93;;;17.00;56.90;;;;;;4995402;28;20077;-13
2022/04/04 02:33:52;;;;;;;1.00;1.00;;;16.90;56.70;;;;;;4995353;28;20034;-13
2022/04/04 02:36:20;;;;;;;1.08;1.05;;;16.90;56.80;;;;;;4996015;28;20594;-13
2022/04/04 02:38:45;;;;;;;1.20;1.10;;;16.90;57.00;;;;;;4994358;28;20061;-13
2022/04/04 02:41:11;;;;;;;0.90;0.90;;;16.90;57.00;;;;;;4996384;28;20042;-14
2022/04/04 02:43:37;;;;;;;1.08;1.08;;;16.90;56.90;;;;;;4995133;28;20066;-13
2022/04/04 02:46:02;;;;;;;1.58;1.27;;;16.90;57.10;;;;;;4996342;28;20038;-14
2022/04/04 02:48:28;;;;;;;0.90;0.90;;;16.90;56.90;;;;;;4995449;28;20513;-13
2022/04/04 02:50:53;;;;;;;0.90;0.90;;;16.90;56.90;;;;;;4995574;28;20133;-13
2022/04/04 02:53:19;;;;;;;1.17;1.17;;;16.90;57.00;;;;;;4996019;28;20534;-13
2022/04/04 02:58:29;;;;;;;1.20;1.13;;;16.90;57.00;;;;;;4988256;28;20065;-12
2022/04/04 03:00:54;;;;;;;1.00;0.90;;;16.90;57.00;;;;;;4976649;28;20429;-13
2022/04/04 03:03:20;;;;;;;0.80;0.80;;;16.80;56.90;;;;;;4976494;28;20045;-14
2022/04/04 03:05:46;;;;;;;0.80;0.80;;;16.80;57.00;;;;;;4984709;28;20488;-14
2022/04/04 03:08:12;;;;;;;0.85;0.85;;;16.90;57.10;;;;;;4995958;28;20096;-13
2022/04/04 03:10:38;;;;;;;0.80;0.80;;;16.80;57.10;;;;;;4995634;28;20054;-13
2022/04/04 03:13:05;;;;;;;0.80;0.80;;;16.80;57.10;;;;;;4996086;28;20042;-13
2022/04/04 03:15:31;;;;;;;1.10;1.10;;;16.80;57.00;;;;;;4994820;28;20457;-13
2022/04/04 03:17:56;;;;;;;1.88;0.93;;;16.90;57.00;;;;;;4995841;28;20170;-15
2022/04/04 03:20:23;;;;;;;0.90;0.90;;;16.80;57.10;;;;;;4995320;28;20795;-13
2022/04/04 03:22:50;;;;;;;1.00;0.90;;;16.80;57.00;;;;;;4995169;28;20069;-14
2022/04/04 03:25:17;;;;;;;1.20;1.20;;;16.80;57.10;;;;;;4995788;28;20046;-14
2022/04/04 03:27:43;;;;;;;1.10;1.00;;;16.80;57.10;;;;;;4994185;28;20380;-13
2022/04/04 03:30:13;;;;;;;1.08;1.08;;;16.80;57.10;;;;;;4997450;28;20065;-12
2022/04/04 03:32:39;;;;;;;0.77;0.77;;;16.80;57.20;;;;;;4998511;28;20038;-14
2022/04/04 03:35:06;;;;;;;1.05;1.05;;;16.80;57.20;;;;;;4999592;28;20050;-13
2022/04/04 03:37:32;;;;;;;0.90;0.90;;;16.80;57.20;;;;;;4999180;28;20042;-13
2022/04/04 03:39:58;;;;;;;1.00;1.00;;;16.80;57.20;;;;;;4985874;28;20051;-13
2022/04/04 03:42:24;;;;;;;0.93;0.93;;;16.80;57.30;;;;;;4980353;28;20050;-13
2022/04/04 03:44:49;;;;;;;0.80;0.80;;;16.70;57.20;;;;;;4994949;28;20050;-13
2022/04/04 03:47:15;;;;;;;0.95;0.95;;;16.80;57.20;;;;;;4999449;28;20066;-13
2022/04/04 03:49:40;;;;;;;0.90;0.90;;;16.70;57.20;;;;;;4997953;28;20129;-13
2022/04/04 03:52:06;;;;;;;1.67;1.25;;;16.70;57.30;;;;;;4999401;28;20045;-13
2022/04/04 03:54:33;;;;;;;1.00;1.00;;;16.70;57.30;;;;;;4998329;28;20053;-13
2022/04/04 03:56:58;;;;;;;1.00;1.00;;;16.70;57.30;;;;;;4999227;28;20042;-13
2022/04/04 03:59:24;;;;;;;0.85;0.85;;;16.70;57.30;;;;;;4999370;28;20043;-13
2022/04/04 04:01:50;;;;;;;0.73;0.73;;;16.70;57.20;;;;;;4996290;28;20126;-14
2022/04/04 04:04:15;;;;;;;0.80;0.80;;;16.70;57.30;;;;;;4979706;28;20051;-14
2022/04/04 04:06:41;;;;;;;0.90;0.90;;;16.70;57.30;;;;;;4979101;28;20448;-13
2022/04/04 04:09:07;;;;;;;1.00;1.00;;;16.70;57.30;;;;;;4979739;28;20050;-13
2022/04/04 04:11:32;;;;;;;0.93;0.93;;;16.60;57.30;;;;;;4994705;28;20043;-13
2022/04/04 04:14:00;;;;;;;0.90;0.90;;;16.70;57.40;;;;;;4999219;28;20534;-13
2022/04/04 04:16:26;;;;;;;0.98;0.98;;;16.60;57.30;;;;;;4999136;28;20046;-13
2022/04/04 04:18:51;;;;;;;1.15;1.05;;;16.60;57.40;;;;;;4997639;28;20058;-14
2022/04/04 04:21:17;;;;;;;0.80;0.80;;;16.60;57.30;;;;;;4999003;28;20034;-12
2022/04/04 04:23:43;;;;;;;0.88;0.88;;;16.60;57.30;;;;;;4997724;28;20125;-12
2022/04/04 04:26:11;;;;;;;1.00;1.00;;;16.60;57.20;;;;;;4997963;28;20046;-12
2022/04/04 04:28:37;;;;;;;0.93;0.93;;;16.60;57.30;;;;;;4996900;28;20488;-13
2022/04/04 04:31:02;;;;;;;0.82;0.82;;;16.60;57.30;;;;;;4998885;28;20124;-13
2022/04/04 04:33:29;;;;;;;0.90;0.90;;;16.60;57.30;;;;;;4996385;28;20054;-13
2022/04/04 04:35:55;;;;;;;1.00;1.00;;;16.60;57.30;;;;;;4998063;28;20130;-13
2022/04/04 04:38:20;;;;;;;0.85;0.85;;;16.60;57.30;;;;;;4998618;28;20129;-12
2022/04/04 04:40:46;;;;;;;1.10;1.10;;;16.60;57.30;;;;;;4990684;28;20074;-13
2022/04/04 04:43:11;;;;;;;0.90;0.90;;;16.60;57.30;;;;;;4979115;28;20130;-13
2022/04/04 04:45:37;;;;;;;1.05;1.05;;;16.60;57.40;;;;;;4997702;28;20042;-13
2022/04/04 04:48:03;;;;;;;1.00;1.00;;;16.50;57.30;;;;;;4997650;28;20495;-13
2022/04/04 04:50:29;;;;;;;1.00;1.00;;;16.50;57.40;;;;;;4979024;28;20043;-12
2022/04/04 04:52:55;;;;;;;0.93;0.93;;;16.50;57.30;;;;;;4978275;28;20049;-12
2022/04/04 04:55:21;;;;;;;1.17;1.17;;;16.50;57.30;;;;;;4978996;28;20055;-13
2022/04/04 04:57:47;;;;;;;0.90;0.90;;;16.50;57.30;;;;;;4978670;28;20050;-13
2022/04/04 05:00:15;;;;;;;0.80;0.80;;;16.60;57.40;;;;;;4978557;28;20042;-13
2022/04/04 05:02:40;;;;;;;1.17;1.17;;;16.50;57.20;;;;;;4978294;28;20661;-13
2022/04/04 05:05:07;;;;;;;1.08;1.08;;;16.50;57.40;;;;;;4978864;28;20105;-12
2022/04/04 05:07:32;;;;;;;0.95;0.95;;;16.50;57.30;;;;;;4978614;28;20047;-13
2022/04/04 05:09:58;;;;;;;1.10;1.00;;;16.50;57.20;;;;;;4962914;28;20042;-13
2022/04/04 05:12:23;;;;;;;0.90;0.90;;;16.50;57.30;;;;;;4993241;28;20057;-14
2022/04/04 05:14:49;;;;;;;1.00;1.00;;;16.50;57.30;;;;;;4996740;28;20129;-14
2022/04/04 05:17:15;;;;;;;1.13;1.13;;;16.50;57.50;;;;;;4997984;28;20038;-13
2022/04/04 05:19:41;;;;;;;0.90;0.90;;;16.50;57.40;;;;;;4996428;28;20054;-13
2022/04/04 05:22:07;;;;;;;0.90;0.90;;;16.50;57.40;;;;;;4996980;28;20140;-13
2022/04/04 05:24:33;;;;;;;1.00;1.00;;;16.50;57.40;;;;;;4996563;28;20420;-13
2022/04/04 05:26:59;;;;;;;0.90;0.90;;;16.50;57.40;;;;;;4996394;28;20104;-12
2022/04/04 05:29:26;;;;;;;0.82;0.82;;;16.50;57.40;;;;;;4993819;28;20050;-13
2022/04/04 05:31:55;;;;;;;1.00;1.00;;;16.50;57.10;;;;;;4637832;28;10000643;-14
2022/04/04 05:34:22;;;;;;;0.70;0.70;;;16.50;57.80;;;;;;4994769;28;20051;-12
2022/04/04 05:36:48;;;;;;;0.82;0.82;;;16.50;57.30;;;;;;4998440;28;20519;-14
2022/04/04 05:39:14;;;;;;;0.80;0.80;;;16.50;57.00;;;;;;5001333;28;20046;-14
2022/04/04 05:41:40;;;;;;;1.20;1.10;;;16.50;57.00;;;;;;4999906;28;20053;-13
2022/04/04 05:44:06;;;;;;;0.88;0.88;;;16.50;57.10;;;;;;4998004;28;20108;-13
2022/04/04 05:46:32;;;;;;;0.80;0.80;;;16.50;57.20;;;;;;4988264;28;20102;-12
2022/04/04 05:48:58;;;;;;;1.67;1.10;;;16.60;57.30;;;;;;4994191;28;20458;-12
2022/04/04 05:51:24;;;;;;;0.88;0.88;;;16.50;57.30;;;;;;5006705;28;20125;-13
2022/04/04 05:53:49;;;;;;;6.72;0.95;;;16.50;57.30;;;;;;5004602;28;20129;-13
2022/04/04 05:56:15;;;;;;;0.90;0.90;;;16.50;57.20;;;;;;4992536;28;20088;-13
2022/04/04 05:58:41;;;;;;;0.95;0.90;;;16.50;57.90;;;;;;4999712;28;20072;-13
2022/04/04 06:01:08;;;;;;;0.95;0.95;;;16.50;57.30;;;;;;5012578;28;20584;-12
2022/04/04 06:03:34;;;;;;;0.88;0.88;;;16.50;57.20;;;;;;4992586;28;20050;-14
2022/04/04 06:06:01;;;;;;;0.63;0.63;;;16.50;57.30;;;;;;5006451;28;20052;-13
2022/04/04 06:08:26;;;;;;;1.30;0.80;;;16.50;57.30;;;;;;5005075;28;20088;-16
2022/04/04 06:10:52;;;;;;;1.48;1.38;;;16.50;57.30;;;;;;4985947;28;20129;-14
2022/04/04 06:13:18;;;;;;;0.98;0.90;;;16.50;57.40;;;;;;5000976;28;20045;-13
2022/04/04 06:15:44;;;;;;;0.88;0.88;;;16.50;57.20;;;;;;4988801;28;20038;-12
2022/04/04 06:18:10;;;;;;;1.27;1.17;;;16.50;57.20;;;;;;5000407;28;20056;-14
2022/04/04 06:20:36;;;;;;;0.80;0.80;;;16.50;57.10;;;;;;5012322;28;20541;-13
2022/04/04 06:23:02;;;;;;;1.00;1.00;;;16.50;57.10;;;;;;5002190;28;20423;-13
2022/04/04 06:25:28;;;;;;;0.75;0.75;;;16.50;57.20;;;;;;5003002;28;20649;-13
2022/04/04 06:27:54;;;;;;;1.02;0.77;;;16.50;57.00;;;;;;4992336;28;20049;-12
2022/04/04 06:30:21;;;;;;;0.80;0.80;;;16.50;57.10;;;;;;4996103;28;20046;-12
2022/04/04 06:32:46;;;;;;;1.35;0.88;;;16.60;57.00;;;;;;4991882;28;20070;-12
2022/04/04 06:35:12;;;;;;;0.90;0.90;;;16.50;57.00;;;;;;4993787;28;20076;-13
2022/04/04 06:37:38;;;;;;;0.90;0.90;;;16.50;57.00;;;;;;4986118;28;20046;-13
2022/04/04 06:40:05;;;;;;;2.53;1.10;;;16.60;57.20;;;;;;4991823;28;20536;-13
2022/04/04 06:42:40;;;;;;;1.33;1.23;;;16.60;56.70;;;;;;4984912;28;20125;-13
2022/04/04 06:45:07;;;;;;;0.77;0.77;;;16.60;56.80;;;;;;4978731;28;20050;-15
2022/04/04 06:47:33;;;;;;;1.00;1.00;;;16.50;56.80;;;;;;4979087;28;20133;-15
2022/04/04 06:49:59;;;;;;;1.00;1.00;;;16.60;57.00;;;;;;4978820;28;20133;-15
2022/04/04 06:52:26;;;;;;;1.10;1.10;;;16.50;56.90;;;;;;4979636;28;20073;-15
2022/04/04 06:54:53;;;;;;;1.92;1.00;;;16.50;57.00;;;;;;4978301;28;20510;-14
2022/04/04 06:57:19;;;;;;;1.50;0.93;;;16.50;57.10;;;;;;4976705;28;20081;-16
2022/04/04 06:59:45;;;;;;;0.90;0.70;;;16.40;57.00;;;;;;4979127;28;20058;-15
2022/04/04 07:02:11;;;;;;;0.80;0.80;;;16.50;57.00;;;;;;4978247;28;20424;-15
2022/04/04 07:04:41;;;;;;;0.73;0.70;;;16.50;57.00;;;;;;4974579;28;20065;-15
2022/04/04 07:07:07;;;;;;;1.60;1.00;;;16.50;57.10;;;;;;4977066;28;20478;-16
2022/04/04 07:09:33;;;;;;;0.88;0.88;;;16.50;57.00;;;;;;4979031;28;20046;-16
2022/04/04 07:11:58;;;;;;;0.85;0.85;;;16.40;57.00;;;;;;4979931;28;20050;-15
2022/04/04 07:14:24;;;;;;;0.80;0.80;;;16.50;57.20;;;;;;4980218;28;20539;-15
2022/04/04 07:16:52;;;;;;;1.77;0.93;;;16.50;56.90;;;;;;4976551;28;20050;-14
2022/04/04 07:19:33;;;;;;;0.70;0.70;;;16.50;56.80;;;;;;4979065;28;20137;-15
2022/04/04 07:22:01;;;;;;;2.55;1.00;;;16.50;57.00;;;;;;4977837;28;20055;-15
2022/04/04 07:24:27;;;;;;;0.90;0.90;;;16.60;56.90;;;;;;4979045;28;20836;-15
2022/04/04 07:26:53;;;;;;;0.98;0.98;;;16.60;56.60;;;;;;4975907;28;20647;-15
2022/04/04 07:29:18;;;;;;;0.70;0.70;;;16.60;57.30;;;;;;4979462;28;20141;-16
2022/04/04 07:31:44;;;;;;;0.90;0.90;;;16.70;56.40;;;;;;4978525;28;20503;-17
2022/04/04 07:34:14;;;;;;;1.02;0.93;;;16.70;56.50;;;;;;4979516;28;20057;-16
2022/04/04 07:36:40;;;;;;;2.13;1.05;;;16.70;56.30;;;;;;4977201;28;20108;-16
2022/04/04 07:39:06;;;;;;;0.80;0.77;;;16.70;56.50;;;;;;4979137;28;20146;-16
2022/04/04 07:41:31;;;;;;;0.80;0.80;;;16.70;56.30;;;;;;4978815;28;20590;-15
2022/04/04 07:43:57;;;;;;;1.35;0.90;;;16.70;56.40;;;;;;4978098;28;20140;-15
2022/04/04 07:46:23;;;;;;;1.02;1.02;;;16.70;56.50;;;;;;4976363;28;20054;-16
2022/04/04 07:48:48;;;;;;;1.05;0.90;;;16.70;56.30;;;;;;4978018;28;20830;-15
2022/04/04 07:51:14;;;;;;;1.00;1.00;;;16.70;56.40;;;;;;4978025;28;20059;-15
2022/04/04 07:53:39;;;;;;;0.90;0.90;;;16.80;56.70;;;;;;4980035;28;20042;-16
2022/04/04 07:56:05;;;;;;;1.25;1.15;;;16.80;56.10;;;;;;4975850;28;20046;-15
2022/04/04 07:58:31;;;;;;;1.00;1.00;;;16.90;56.10;;;;;;4978615;28;20057;-15
2022/04/04 08:00:56;;;;;;;1.00;0.90;;;16.90;55.90;;;;;;4979624;28;20414;-15
2022/04/04 08:03:23;;;;;;;0.75;0.75;;;16.90;55.80;;;;;;4978972;28;20088;-15
2022/04/04 08:05:48;;;;;;;0.80;0.80;;;17.20;55.70;;;;;;4975054;28;20058;-15
2022/04/04 08:08:14;;;;;;;0.98;0.98;;;17.60;54.50;;;;;;4979509;28;20146;-16
2022/04/04 08:10:40;;;;;;;0.75;0.75;;;17.90;53.60;;;;;;4979224;28;20057;-15
2022/04/04 08:13:06;;;;;;;0.70;0.70;;;17.90;53.50;;;;;;4978447;28;20058;-16
2022/04/04 08:15:31;;;;;;;0.82;0.82;;;17.60;54.20;;;;;;4977050;28;20641;-15
2022/04/04 08:17:57;;;;;;;0.80;0.80;;;17.30;55.10;;;;;;4982096;28;20046;-14
2022/04/04 08:20:22;;;;;;;0.73;0.73;;;17.10;55.40;;;;;;4981775;28;20093;-14
2022/04/04 08:22:48;;;;;;;1.05;1.05;;;17.00;55.60;;;;;;4982825;28;20895;-14
2022/04/04 08:25:14;;;;;;;0.80;0.80;;;17.10;55.60;;;;;;4981741;28;20058;-14
2022/04/04 08:27:41;;;;;;;1.10;1.10;;;17.00;56.20;;;;;;4981148;28;20050;-15
2022/04/04 08:30:08;;;;;;;0.85;0.85;;;17.00;55.60;;;;;;4981749;28;20435;-14
2022/04/04 08:32:36;;;;;;;0.88;0.88;;;17.10;55.70;;;;;;4983283;28;20614;-15
2022/04/04 08:35:06;;;;;;;0.90;0.90;;;17.10;55.60;;;;;;4982401;28;20132;-14
2022/04/04 08:37:33;;;;;;;0.98;0.98;;;17.00;55.50;;;;;;4978520;28;20137;-15
2022/04/04 08:39:59;;;;;;;5.88;1.15;;;17.00;55.80;;;;;;4981922;28;20054;-15
2022/04/04 08:42:27;;;;;;;0.80;0.80;;;17.00;55.80;;;;;;4983032;28;20046;-15
2022/04/04 08:44:55;;;;;;;2.65;1.23;;;17.00;55.70;;;;;;4981936;28;20070;-15
2022/04/04 08:47:20;;;;;;;0.90;0.90;;;17.00;55.70;;;;;;4981509;28;20050;-14
2022/04/04 08:49:46;;;;;;;0.73;0.73;;;17.10;55.90;;;;;;4982107;28;20061;-14
2022/04/04 08:52:13;;;;;;;0.90;0.90;;;17.10;55.80;;;;;;4981467;28;20050;-15
2022/04/04 08:54:39;;;;;;;0.63;0.63;;;17.20;55.70;;;;;;4981264;28;20189;-14
2022/04/04 08:57:04;;;;;;;0.80;0.80;;;17.20;55.50;;;;;;4977563;28;20042;-14
2022/04/04 08:59:30;;;;;;;0.75;0.75;;;17.20;55.50;;;;;;4981282;28;20629;-14
2022/04/04 09:01:55;;;;;;;1.70;0.82;;;17.30;55.10;;;;;;4981511;28;20129;-14
2022/04/04 09:04:22;;;;;;;1.95;1.30;;;17.20;55.50;;;;;;4982191;28;20070;-15
2022/04/04 09:06:52;;;;;;;0.95;0.95;;;17.10;55.60;;;;;;4980591;28;20124;-15
2022/04/04 09:09:44;;;;;;;0.90;0.90;;;17.00;55.70;;;;;;4981788;28;20069;-15
2022/04/04 09:12:12;;;;;;;0.90;0.90;;;17.00;55.60;;;;;;4981516;28;20050;-14
2022/04/04 09:14:38;;;;;;;1.25;1.00;;;17.00;55.60;;;;;;4981502;28;20149;-14
2022/04/04 09:17:06;;;;;;;0.80;0.73;;;17.00;55.90;;;;;;4979145;28;20045;-14
2022/04/04 09:19:32;;;;;;;1.10;1.00;;;17.10;55.60;;;;;;4981592;28;20046;-14
2022/04/04 09:22:04;;;;;;;0.75;0.75;;;17.10;55.60;;;;;;4980359;28;20775;-14
2022/04/04 09:25:02;;;;;;;1.17;0.80;;;17.30;55.40;;;;;;4982472;28;20050;-13
2022/04/04 09:27:32;;;;;;;1.00;0.90;;;17.30;55.20;;;;;;4981676;28;20524;-15
2022/04/04 09:30:01;;;;;;;0.95;0.95;;;17.30;55.10;;;;;;4980917;28;20057;-14
2022/04/04 09:32:39;;;;;;;0.82;0.82;;;17.40;55.10;;;;;;4979979;28;20435;-16
2022/04/04 09:35:09;;;;;;;0.63;0.63;;;17.40;55.10;;;;;;4979675;28;20538;-15
2022/04/04 09:37:35;;;;;;;0.70;0.70;;;17.40;54.90;;;;;;4979112;28;20644;-15
2022/04/04 09:40:20;;;;;;;0.90;0.80;;;17.50;54.60;;;;;;4980614;28;20085;-14
2022/04/04 09:42:52;;;;;;;1.65;0.80;;;17.40;54.80;;;;;;4978224;28;20046;-15
2022/04/04 09:45:19;;;;;;;0.70;0.70;;;17.50;55.00;;;;;;4978445;28;20058;-15
2022/04/04 09:47:48;;;;;;;0.77;0.70;;;17.50;55.00;;;;;;4978787;28;20057;-16
2022/04/04 09:50:41;;;;;;;1.02;0.73;;;17.50;54.70;;;;;;4980274;28;20086;-16
2022/04/04 09:53:17;;;;;;;0.93;0.70;;;17.40;54.90;;;;;;4979155;28;20407;-15
2022/04/04 09:55:47;;;;;;;1.73;0.80;;;17.30;55.00;;;;;;4977590;28;20085;-14
2022/04/04 09:58:15;;;;;;;0.60;0.60;;;17.30;55.10;;;;;;4979652;28;20054;-14
2022/04/04 10:00:42;;;;;;;0.70;0.70;;;17.50;54.90;;;;;;4980173;28;20050;-16
2022/04/04 10:03:12;;;;;;;0.80;0.80;;;17.50;54.80;;;;;;4980679;28;20054;-14
2022/04/04 10:05:44;;;;;;;0.95;0.50;;;17.40;54.80;;;;;;4979958;28;20057;-14
2022/04/04 10:08:13;;;;;;;1.23;0.45;;;17.50;54.90;;;;;;4976229;28;20053;-14
2022/04/04 10:10:39;;;;;;;0.57;0.57;;;17.40;54.90;;;;;;4981175;28;20058;-14
2022/04/04 10:13:05;;;;;;;0.50;0.50;;;17.40;54.80;;;;;;4978239;28;20585;-15
2022/04/04 10:15:31;;;;;;;0.80;0.45;;;17.40;54.80;;;;;;4977811;28;20073;-14
2022/04/04 10:17:57;;;;;;;0.60;0.60;;;17.40;54.60;;;;;;4978130;28;20123;-14
2022/04/04 10:20:23;;;;;;;0.60;0.50;;;17.50;54.80;;;;;;4978274;28;20494;-15
2022/04/04 10:22:53;;;;;;;0.65;0.50;;;17.50;54.60;;;;;;4980049;28;20707;-14
2022/04/04 10:25:21;;;;;;;0.50;0.50;;;17.50;54.50;;;;;;4977785;28;20079;-15
2022/04/04 10:27:47;;;;;;;0.90;0.50;;;17.50;54.70;;;;;;4976903;28;20069;-16
2022/04/04 10:30:13;;;;;;;0.75;0.50;;;17.50;54.80;;;;;;4985482;28;20559;-14
2022/04/04 10:32:48;;;;;;;0.50;0.50;;;17.50;54.70;;;;;;4987786;28;20047;-14
2022/04/04 10:35:15;;;;;;;0.60;0.60;;;17.50;54.70;;;;;;4982971;28;20526;-15
2022/04/04 10:37:44;;;;;;;0.40;0.40;;;17.60;54.50;;;;;;4992763;28;20058;-14
2022/04/04 10:40:17;;;;;;;0.32;0.32;;;17.60;54.50;;;;;;4993322;28;20034;-14
2022/04/04 10:42:43;;;;;;;0.60;0.55;;;17.70;54.30;;;;;;4989267;28;20046;-14
2022/04/04 10:45:12;;;;;;;0.40;0.40;;;17.60;54.30;;;;;;4989513;28;20074;-14
2022/04/04 10:47:43;;;;;;;0.40;0.40;;;17.60;54.30;;;;;;4993820;28;20050;-14
2022/04/04 10:50:30;;;;;;;0.50;0.50;;;17.60;54.40;;;;;;4995100;28;20410;-14
2022/04/04 10:52:58;;;;;;;0.40;0.40;;;17.60;54.50;;;;;;4986629;28;20417;-15
2022/04/04 10:55:34;;;;;;;0.77;0.40;;;17.60;54.50;;;;;;4984009;28;20046;-14
2022/04/04 10:58:20;;;;;;;0.50;0.40;;;17.60;54.50;;;;;;4995332;28;20125;-15
2022/04/04 11:01:04;;;;;;;0.40;0.40;;;17.50;54.50;;;;;;4986354;28;20051;-14
2022/04/04 11:03:32;;;;;;;0.52;0.50;;;17.60;54.50;;;;;;5006159;28;20057;-15
2022/04/04 11:09:04;;;;;;;0.47;0.35;;;17.60;54.40;;;;;;4995472;28;20137;-15
2022/04/04 11:11:44;;;;;;;0.35;0.35;;;17.60;54.30;;;;;;4995187;28;20064;-14
2022/04/04 11:14:13;;;;;;;0.60;0.60;;;17.50;54.40;;;;;;4995316;28;20096;-14
2022/04/04 11:17:23;;;;;;;0.32;0.32;;;17.60;54.40;;;;;;4994326;28;20045;-14
2022/04/04 11:20:04;;;;;;;0.40;0.40;;;17.60;54.40;;;;;;4983143;28;20080;-14
2022/04/04 11:22:33;;;;;;;0.90;0.50;;;17.60;54.40;;;;;;4993722;28;20101;-14
2022/04/04 11:25:06;;;;;;;0.30;0.30;;;17.60;54.40;;;;;;4994768;28;20053;-14
2022/04/04 11:27:36;;;;;;;0.50;0.40;;;17.60;54.30;;;;;;4994333;28;20056;-14
2022/04/04 11:30:10;;;;;;;0.50;0.30;;;17.60;54.40;;;;;;4993351;28;20420;-14
2022/04/04 11:32:40;;;;;;;0.40;0.40;;;17.60;54.40;;;;;;4983815;28;20146;-13
2022/04/04 11:35:10;;;;;;;0.82;0.30;;;17.60;54.30;;;;;;4646167;28;10000202;-14
2022/04/04 11:37:55;;;;;;;0.68;0.47;;;17.60;55.00;;;;;;4991136;28;20054;-13
2022/04/04 11:40:29;;;;;;;0.50;0.47;;;17.60;54.50;;;;;;4995884;28;20508;-13
2022/04/04 11:42:55;;;;;;;0.30;0.30;;;17.60;54.50;;;;;;4996006;28;20054;-13
2022/04/04 11:45:22;;;;;;;0.40;0.40;;;17.60;54.60;;;;;;4994583;28;20346;-13
2022/04/04 11:47:56;;;;;;;0.30;0.30;;;17.60;54.70;;;;;;5002483;28;20061;-13
2022/04/04 11:50:25;;;;;;;1.77;0.40;;;17.60;54.70;;;;;;4991223;28;20065;-13
2022/04/04 11:52:54;;;;;;;0.40;0.40;;;17.70;54.90;;;;;;5000995;28;20062;-13
2022/04/04 11:55:20;;;;;;;2.42;0.40;;;17.60;55.10;;;;;;5007434;28;20050;-13
2022/04/04 11:57:49;;;;;;;0.30;0.30;;;17.60;55.30;;;;;;4989278;28;20416;-14
2022/04/04 12:00:25;;;;;;;0.60;0.40;;;17.60;55.50;;;;;;5000330;28;20092;-14
2022/04/04 12:02:51;;;;;;;1.63;0.70;;;17.60;55.40;;;;;;4998736;28;20545;-13
2022/04/04 12:05:21;;;;;;;1.10;0.40;;;17.70;55.60;;;;;;4978880;28;20508;-13
2022/04/04 12:07:48;;;;;;;2.10;0.25;;;17.60;55.80;;;;;;4999008;28;20061;-13
2022/04/04 12:10:16;;;;;;;1.63;0.40;;;17.60;55.90;;;;;;4984361;28;20134;-14
2022/04/04 12:12:42;;;;;;;0.30;0.30;;;17.60;56.10;;;;;;4979634;28;20070;-13
2022/04/04 12:15:08;;;;;;;0.40;0.40;;;17.60;56.00;;;;;;4978755;28;20522;-13
2022/04/04 12:17:34;;;;;;;1.23;0.55;;;17.60;56.00;;;;;;4979411;28;20130;-13
2022/04/04 12:20:00;;;;;;;1.05;0.30;;;17.60;56.00;;;;;;4979290;28;20781;-14
2022/04/04 12:25:16;;;;;;;1.83;0.43;;;17.60;56.00;;;;;;4977695;28;20045;-12
2022/04/04 12:27:56;;;;;;;4.47;0.50;;;17.60;55.90;;;;;;4979720;28;20047;-14
2022/04/04 12:30:28;;;;;;;0.77;0.52;;;17.60;56.00;;;;;;4981168;28;20055;-13
2022/04/04 12:32:54;;;;;;;1.00;0.47;;;17.60;55.90;;;;;;4989988;28;20050;-14
2022/04/04 12:35:20;;;;;;;0.50;0.50;;;17.60;56.00;;;;;;4997736;28;20525;-12
2022/04/04 12:37:45;;;;;;;0.40;0.30;;;17.60;55.90;;;;;;4991864;28;20554;-13
2022/04/04 12:40:15;;;;;;;0.68;0.50;;;17.60;55.90;;;;;;4979364;28;20053;-13
2022/04/04 12:42:40;;;;;;;0.47;0.22;;;17.60;55.90;;;;;;4986646;28;20057;-13
2022/04/04 12:45:06;;;;;;;0.65;0.65;;;17.50;55.80;;;;;;4995094;28;20129;-14
2022/04/04 12:47:32;;;;;;;0.40;0.30;;;17.60;56.50;;;;;;4985345;28;20051;-13
2022/04/04 12:50:14;;;;;;;1.08;0.50;;;17.50;55.90;;;;;;4996317;28;20116;-12
2022/04/04 12:52:56;;;;;;;0.65;0.57;;;17.50;56.00;;;;;;4996533;28;20146;-13
2022/04/04 12:55:21;;;;;;;0.35;0.30;;;17.50;56.00;;;;;;4992082;28;20047;-14